Aledo, IL (61231)

6:12 PM CST on November 21, 2014 (GMT -0600)
KILALEDO2 | Change Station
CLOSE
Current Station
Personal Weather Station
Location: Aledo, IL
Elevation: 735 ft
Nearby Weather Stations
Active Advisory: Freezing Rain Advisory Active Notice: Record Report

Elev 735 ft 41.20 °N, 90.76 °W | Updated 21 seconds ago

Overcast
Overcast
34.0 °F
Feels Like 31 °F
N
3.6
Wind Variable Wind from South
Gusts 3.8 mph

Today
High -- | Low -- °F
--% Chance of Precip.
Yesterday
High -- | Low -- °F
Precip. -- in
6:58 AM 4:39 PM
Waning Crescent, 0% visible
Pressure 30.22 in
Visibility 10.0 miles
Clouds Overcast 2700 ft
Windchill 31 °F
Dew Point 15 °F
Humidity 45%
Rainfall 0.02 in
Snow Depth Not available.
UV 0 out of 12
Pollen .10 out of 12
Air Quality Not available.
Flu Activity Not available.
SPECI KMLI 220005Z 15007KT 10SM OVC027 01/M13 A3022 RMK AO2 T00111128

More Conditions Fewer Conditions

Pressure 30.22 in
Visibility 10.0 miles
Clouds Overcast 2700 ft
Windchill 31 °F
Dew Point 15 °F
Humidity 45%
Rainfall 0.02 in
Snow Depth Not available.
UV 0 out of 12
Pollen .10 out of 12
Air Quality Not available.
Flu Activity Not available.
SPECI KMLI 220005Z 15007KT 10SM OVC027 01/M13 A3022 RMK AO2 T00111128

More Conditions Fewer Conditions

10-Day Weather Forecast

Almanac

Astronomy

Nov. 21, 2014 Rise Set
Actual Time
Civil Twilight
Nautical Twilight
Astronomical Twilight
Moon
Length of Visible Light
Length of Day
Tomorrow will be .
, % of the Moon is Illuminated

Today's Extremes

State Highs State Lows

Community

WunderPhotos

Upload Photos

1,772,744 photos uploaded!

WunderBlogs® & News

Nearby

Air Quality

  Air Quality AQ Index Pollutant
Not available.

Snow Depth

Station Depth Elevation

Earthquake Activity

City Distance Mag. Time & Date
Minimum magnitude displayed is 2.5.

Coastal Water Temperatures

Place Temperature

Nearby Weather Stations